createdAt,value
2023-06-04T00:02:30.169Z,1.00
2023-06-04T00:05:09.409Z,1.00
2023-06-04T00:07:50.967Z,1.00
2023-06-04T00:10:55.716Z,1.00
2023-06-04T00:13:36.636Z,1.00
2023-06-04T00:16:11.038Z,1.00
2023-06-04T00:18:56.795Z,1.00
2023-06-04T00:21:51.645Z,1.00
2023-06-04T00:24:26.454Z,1.00
2023-06-04T00:27:01.089Z,1.00
2023-06-04T00:30:00.768Z,1.00
2023-06-04T00:32:32.493Z,16.40
2023-06-04T00:35:02.389Z,51.50
2023-06-04T00:37:38.579Z,98.40
2023-06-04T00:40:18.929Z,99.90
2023-06-04T00:42:56.497Z,99.90
2023-06-04T00:45:37.658Z,99.90
2023-06-04T00:48:20.357Z,99.90
2023-06-04T00:51:03.367Z,99.90
2023-06-04T00:53:49.862Z,99.90
2023-06-04T00:56:21.167Z,1.00
2023-06-04T00:58:56.349Z,1.00
2023-06-04T01:01:35.977Z,1.00
2023-06-04T01:04:14.185Z,1.00
2023-06-04T01:06:49.753Z,1.00
2023-06-04T01:09:56.396Z,1.00
2023-06-04T01:12:30.297Z,1.00
2023-06-04T01:15:27.950Z,1.00
2023-06-04T01:18:14.676Z,1.00
2023-06-04T01:20:54.822Z,1.00
2023-06-04T01:24:00.705Z,1.00
2023-06-04T01:26:57.182Z,1.00
2023-06-04T01:29:58.217Z,1.00
2023-06-04T01:32:35.125Z,3.30
2023-06-04T01:35:16.402Z,99.90
2023-06-04T01:38:00.503Z,99.90
2023-06-04T01:40:46.224Z,99.90
2023-06-04T01:43:26.661Z,99.90
2023-06-04T01:46:09.849Z,99.90
2023-06-04T01:48:59.178Z,1.00
2023-06-04T01:51:35.003Z,1.00
2023-06-04T01:54:05.283Z,1.00
2023-06-04T01:56:39.671Z,1.00
2023-06-04T01:59:29.506Z,99.90
2023-06-04T02:02:02.751Z,99.90
2023-06-04T02:04:39.007Z,99.90
2023-06-04T02:07:12.083Z,99.90
2023-06-04T02:09:42.617Z,99.90
2023-06-04T02:12:30.840Z,99.90
2023-06-04T02:24:32.121Z,99.90
2023-06-04T02:27:00.692Z,99.90
2023-06-04T02:29:29.360Z,99.90
2023-06-04T02:31:59.085Z,99.90
2023-06-04T02:34:27.606Z,99.90
2023-06-04T02:36:56.011Z,99.90
2023-06-04T02:39:26.661Z,99.90
2023-06-04T02:41:58.101Z,99.90
2023-06-04T02:44:31.809Z,99.90
2023-06-04T02:47:00.336Z,99.90
2023-06-04T02:49:30.837Z,99.90
2023-06-04T02:51:59.321Z,99.90
2023-06-04T02:54:29.919Z,99.90
2023-06-04T02:57:12.436Z,99.90
2023-06-04T02:59:41.266Z,99.90
2023-06-04T03:02:10.338Z,99.90
2023-06-04T03:04:38.940Z,99.90
2023-06-04T03:07:13.976Z,99.90
2023-06-04T03:09:45.453Z,99.90
2023-06-04T03:12:17.906Z,1.00
2023-06-04T03:14:48.306Z,1.00
2023-06-04T03:17:18.795Z,1.00
2023-06-04T03:19:49.777Z,1.00
2023-06-04T03:22:25.123Z,1.00
2023-06-04T03:24:55.753Z,99.90
2023-06-04T03:27:26.088Z,99.90
2023-06-04T03:29:56.709Z,99.90
2023-06-04T03:32:27.361Z,99.90
2023-06-04T03:34:59.612Z,99.90
2023-06-04T03:37:30.165Z,99.90
2023-06-04T03:39:59.177Z,99.90
2023-06-04T03:42:29.272Z,21.40
2023-06-04T03:44:59.261Z,1.00
2023-06-04T03:47:31.622Z,1.00
2023-06-04T03:50:05.933Z,1.00
2023-06-04T03:52:35.370Z,1.00
2023-06-04T03:55:04.715Z,1.00
2023-06-04T03:57:35.282Z,1.00
2023-06-04T04:00:07.011Z,1.00
2023-06-04T04:02:43.872Z,1.00
2023-06-04T04:05:22.674Z,1.00
2023-06-04T04:07:52.580Z,1.00
2023-06-04T04:10:25.636Z,1.00
2023-06-04T04:12:56.320Z,99.90
2023-06-04T04:15:26.082Z,99.90
2023-06-04T04:17:57.218Z,99.90
2023-06-04T04:20:28.712Z,4.10
2023-06-04T04:23:02.918Z,3.50
2023-06-04T04:25:33.684Z,1.00
2023-06-04T04:28:07.897Z,1.00
2023-06-04T04:30:40.072Z,1.00
2023-06-04T04:33:11.554Z,99.90
2023-06-04T04:35:46.178Z,1.00
2023-06-04T04:38:18.361Z,1.00
2023-06-04T04:40:53.540Z,1.00
2023-06-04T04:43:33.308Z,1.00
2023-06-04T04:46:07.270Z,1.00
2023-06-04T04:48:35.951Z,1.00
2023-06-04T04:51:04.391Z,24.10
2023-06-04T04:53:35.314Z,99.90
2023-06-04T04:56:13.086Z,99.90
2023-06-04T04:58:47.167Z,99.90
2023-06-04T05:01:16.958Z,99.90
2023-06-04T05:03:46.360Z,66.50
2023-06-04T05:06:23.266Z,1.00
2023-06-04T05:08:52.900Z,1.00
2023-06-04T05:11:22.627Z,1.00
2023-06-04T05:13:54.214Z,99.90
2023-06-04T05:16:24.052Z,1.00
2023-06-04T05:18:52.940Z,1.00
2023-06-04T05:21:25.270Z,99.90
2023-06-04T05:24:02.314Z,99.90
2023-06-04T05:26:34.937Z,99.90
2023-06-04T05:29:10.905Z,99.90
2023-06-04T05:31:42.639Z,99.90
2023-06-04T05:34:16.608Z,99.90
2023-06-04T05:36:46.604Z,99.90
2023-06-04T05:39:15.898Z,99.90
2023-06-04T05:42:00.210Z,99.90
2023-06-04T05:44:29.945Z,99.90
2023-06-04T05:46:58.362Z,90.10
2023-06-04T05:49:27.976Z,87.40
2023-06-04T05:51:59.306Z,23.90
2023-06-04T05:54:29.099Z,20.90
2023-06-04T05:56:58.890Z,1.00
2023-06-04T05:59:27.389Z,1.00
2023-06-04T06:01:57.746Z,1.00
2023-06-04T06:04:26.939Z,1.00
2023-06-04T06:06:55.414Z,1.00
2023-06-04T06:09:24.004Z,1.00
2023-06-04T06:11:52.606Z,1.00
2023-06-04T06:14:21.686Z,1.00
2023-06-04T06:16:54.188Z,1.00
2023-06-04T06:19:24.289Z,1.00
2023-06-04T06:21:55.102Z,1.00
2023-06-04T06:24:23.464Z,1.00
2023-06-04T06:26:51.870Z,1.00
2023-06-04T06:29:20.461Z,1.00
2023-06-04T06:31:50.190Z,1.00
2023-06-04T06:34:18.569Z,1.00
2023-06-04T06:36:49.283Z,1.00
2023-06-04T06:39:17.633Z,1.00
2023-06-04T06:41:45.961Z,1.00
2023-06-04T06:44:19.738Z,1.00
2023-06-04T06:46:50.242Z,1.00
2023-06-04T06:49:18.731Z,1.00
2023-06-04T06:51:48.797Z,1.00
2023-06-04T06:54:18.125Z,1.00
2023-06-04T06:56:46.888Z,1.00
2023-06-04T06:59:19.325Z,1.00
2023-06-04T07:01:48.409Z,1.00
2023-06-04T07:04:17.298Z,1.00
2023-06-04T07:06:47.713Z,1.00
2023-06-04T07:09:17.551Z,1.00
2023-06-04T07:11:46.005Z,1.00
2023-06-04T07:14:14.555Z,1.00
2023-06-04T07:16:43.009Z,1.00
2023-06-04T07:19:11.442Z,1.00
2023-06-04T07:21:42.816Z,1.00
2023-06-04T07:24:11.327Z,1.00
2023-06-04T07:26:41.329Z,1.00
2023-06-04T07:29:10.075Z,1.00
2023-06-04T07:31:38.465Z,1.00
2023-06-04T07:34:06.723Z,1.00
2023-06-04T07:36:34.993Z,1.00
2023-06-04T07:39:04.392Z,1.00
2023-06-04T07:41:32.946Z,1.00
2023-06-04T07:44:02.573Z,1.00
2023-06-04T07:46:31.012Z,1.00
2023-06-04T07:48:59.258Z,1.00
2023-06-04T07:51:27.845Z,1.00
2023-06-04T07:53:56.592Z,1.00
2023-06-04T07:56:25.176Z,1.00
2023-06-04T07:58:53.471Z,1.00
2023-06-04T08:01:25.065Z,1.00
2023-06-04T08:03:53.473Z,1.00
2023-06-04T08:06:21.897Z,1.00
2023-06-04T08:08:51.274Z,1.00
2023-06-04T08:11:19.633Z,1.00
2023-06-04T08:13:47.864Z,1.00
2023-06-04T08:16:16.203Z,1.00
2023-06-04T08:18:45.957Z,1.00
2023-06-04T08:21:15.069Z,1.00
2023-06-04T08:23:43.391Z,1.00
2023-06-04T08:26:11.883Z,1.00
2023-06-04T08:28:41.123Z,1.00
2023-06-04T08:31:09.725Z,1.00
2023-06-04T08:33:38.194Z,1.00
2023-06-04T08:36:08.217Z,1.00
2023-06-04T08:38:36.560Z,1.00
2023-06-04T08:41:12.369Z,1.00
2023-06-04T08:43:43.942Z,1.00
2023-06-04T08:46:13.820Z,1.00
2023-06-04T08:48:42.164Z,1.00
2023-06-04T08:51:13.050Z,1.00
2023-06-04T08:53:41.394Z,1.00
2023-06-04T08:56:09.762Z,1.00
2023-06-04T08:58:39.926Z,1.00
2023-06-04T09:01:09.533Z,1.00
2023-06-04T09:03:40.011Z,1.00
2023-06-04T09:06:10.910Z,1.00
2023-06-04T09:08:44.059Z,1.00
2023-06-04T09:11:20.121Z,1.00
2023-06-04T09:14:01.356Z,1.00
2023-06-04T09:16:50.311Z,1.00
2023-06-04T09:19:23.778Z,1.00
2023-06-04T09:21:59.651Z,1.00
2023-06-04T09:24:42.686Z,1.00
2023-06-04T09:27:17.886Z,1.00
2023-06-04T09:29:54.909Z,1.00
2023-06-04T09:32:29.493Z,1.00
2023-06-04T09:34:58.537Z,1.00
2023-06-04T09:37:28.054Z,1.00
2023-06-04T09:39:58.354Z,1.00
2023-06-04T09:42:26.892Z,1.00
2023-06-04T09:44:55.205Z,1.00
2023-06-04T09:47:23.531Z,1.00
2023-06-04T09:49:53.652Z,1.00
2023-06-04T09:52:23.108Z,1.00
2023-06-04T09:54:51.613Z,1.00
2023-06-04T09:57:22.263Z,1.00
2023-06-04T09:59:52.180Z,1.00
2023-06-04T10:02:23.192Z,1.00
2023-06-04T10:04:56.187Z,1.00
2023-06-04T10:07:25.935Z,1.00
2023-06-04T10:09:54.900Z,1.00
2023-06-04T10:12:28.263Z,1.00
2023-06-04T10:15:00.948Z,1.00
2023-06-04T10:17:31.275Z,1.00
2023-06-04T10:20:03.276Z,1.00
2023-06-04T10:22:32.892Z,1.00
2023-06-04T10:25:02.376Z,1.00
2023-06-04T10:27:32.953Z,1.00
2023-06-04T10:30:01.688Z,1.00
2023-06-04T10:32:30.679Z,1.00
2023-06-04T10:34:59.745Z,1.00
2023-06-04T10:37:32.226Z,1.00
2023-06-04T10:40:01.264Z,1.00
2023-06-04T10:42:43.584Z,1.00
2023-06-04T10:45:13.340Z,1.00
2023-06-04T10:47:42.754Z,1.00
2023-06-04T10:50:12.766Z,1.00
2023-06-04T10:52:52.564Z,1.00
2023-06-04T10:55:22.066Z,1.00
2023-06-04T10:57:55.962Z,1.00
2023-06-04T11:00:25.147Z,1.00
2023-06-04T11:02:54.771Z,1.00
2023-06-04T11:05:24.237Z,1.00
2023-06-04T11:07:52.907Z,1.00
2023-06-04T11:10:33.440Z,1.00
2023-06-04T11:13:04.577Z,1.00
2023-06-04T11:15:42.646Z,1.00
2023-06-04T11:18:16.527Z,1.00
2023-06-04T11:20:46.042Z,1.00
2023-06-04T11:23:37.662Z,1.00
2023-06-04T11:26:06.332Z,1.00
2023-06-04T11:28:50.147Z,1.00
2023-06-04T11:31:22.429Z,1.00
2023-06-04T11:33:52.979Z,1.00
2023-06-04T11:36:28.232Z,1.00
2023-06-04T11:39:08.638Z,1.00
2023-06-04T11:41:46.104Z,1.00
2023-06-04T11:44:58.747Z,1.00
2023-06-04T11:47:35.451Z,1.00
2023-06-04T11:50:35.533Z,1.00
2023-06-04T11:54:08.331Z,1.00
2023-06-04T11:57:02.307Z,1.00
2023-06-04T12:00:00.802Z,1.00
2023-06-04T12:03:13.556Z,1.00
2023-06-04T12:16:22.587Z,1.00
2023-06-04T12:19:43.198Z,1.00
2023-06-04T12:21:44.840Z,1.00
2023-06-04T12:33:25.091Z,1.00
2023-06-04T12:36:03.789Z,1.00
2023-06-04T12:39:06.571Z,1.00
2023-06-04T12:41:42.270Z,1.00
2023-06-04T12:42:17.320Z,1.00
2023-06-04T12:44:44.026Z,1.00
2023-06-04T12:47:16.057Z,1.00
2023-06-04T12:49:58.728Z,1.00
2023-06-04T12:52:35.345Z,1.00
2023-06-04T12:55:32.193Z,1.00
2023-06-04T12:58:12.537Z,1.00
2023-06-04T13:01:00.424Z,1.00
2023-06-04T13:07:00.700Z,1.00
2023-06-04T13:10:44.587Z,1.00
2023-06-04T13:13:54.730Z,1.00
2023-06-04T13:20:34.207Z,1.00
2023-06-04T13:20:52.808Z,1.00
2023-06-04T13:27:39.016Z,1.00
2023-06-04T13:30:17.747Z,1.00
2023-06-04T13:32:50.212Z,1.00
2023-06-04T13:35:26.031Z,1.00
2023-06-04T13:36:58.418Z,1.00
2023-06-04T13:38:02.610Z,1.00
2023-06-04T13:40:36.446Z,1.00
2023-06-04T13:43:10.117Z,1.00
2023-06-04T13:45:44.406Z,1.00
2023-06-04T13:48:19.569Z,1.00
2023-06-04T13:50:52.011Z,1.00
2023-06-04T13:53:22.941Z,1.00
2023-06-04T13:55:59.438Z,1.00
2023-06-04T13:58:57.442Z,1.00
2023-06-04T14:01:27.769Z,1.00
2023-06-04T14:04:01.164Z,1.00
2023-06-04T14:06:31.871Z,1.00
2023-06-04T14:09:10.723Z,1.00
2023-06-04T14:11:49.303Z,1.00
2023-06-04T14:14:21.573Z,1.00
2023-06-04T14:16:59.376Z,1.00
2023-06-04T14:19:36.548Z,1.00
2023-06-04T14:22:20.401Z,1.00
2023-06-04T14:24:52.175Z,1.00
2023-06-04T14:27:26.542Z,1.00
2023-06-04T14:30:00.051Z,1.00
2023-06-04T14:32:57.626Z,1.00
2023-06-04T14:35:39.994Z,1.00
2023-06-04T14:38:15.687Z,1.00
2023-06-04T14:40:48.647Z,1.00
2023-06-04T14:43:23.200Z,1.00
2023-06-04T14:45:54.994Z,1.00
2023-06-04T14:48:26.391Z,1.00
2023-06-04T14:50:58.189Z,1.00
2023-06-04T14:53:28.435Z,1.00
2023-06-04T14:55:59.584Z,1.00
2023-06-04T14:58:30.228Z,1.00
2023-06-04T15:01:08.636Z,1.00
2023-06-04T15:03:43.256Z,1.00
2023-06-04T15:06:19.460Z,1.00
2023-06-04T15:08:57.080Z,1.00
2023-06-04T15:11:27.844Z,1.00
2023-06-04T15:14:00.185Z,1.00
2023-06-04T15:16:30.271Z,1.00
2023-06-04T15:19:05.939Z,1.00
2023-06-04T15:21:36.224Z,1.00
2023-06-04T15:24:07.163Z,1.00
2023-06-04T15:26:38.996Z,1.00
2023-06-04T15:29:08.753Z,1.00
2023-06-04T15:31:39.603Z,1.00
2023-06-04T15:34:12.124Z,1.00
2023-06-04T15:36:44.927Z,1.00
2023-06-04T15:39:17.757Z,1.00
2023-06-04T15:41:55.457Z,1.00
2023-06-04T15:44:28.954Z,1.00
2023-06-04T15:47:03.206Z,1.00
2023-06-04T15:49:40.212Z,1.00
2023-06-04T15:52:21.601Z,1.00
2023-06-04T15:55:09.525Z,1.00
2023-06-04T15:57:40.270Z,1.00
2023-06-04T16:00:13.745Z,1.00
2023-06-04T16:02:42.503Z,1.00
2023-06-04T16:05:30.205Z,1.00
2023-06-04T16:08:01.208Z,1.00
2023-06-04T16:10:39.525Z,1.00
2023-06-04T16:13:16.469Z,1.00
2023-06-04T16:15:49.537Z,1.00
2023-06-04T16:18:22.224Z,1.00
2023-06-04T16:20:57.864Z,1.00
2023-06-04T16:23:26.670Z,1.00
2023-06-04T16:25:55.374Z,1.00
2023-06-04T16:29:00.862Z,1.00
2023-06-04T16:32:26.402Z,1.00
2023-06-04T16:35:39.016Z,1.00
2023-06-04T16:38:34.565Z,1.00
2023-06-04T16:42:15.783Z,1.00
2023-06-04T16:45:49.534Z,1.00
2023-06-04T16:48:49.911Z,1.00
2023-06-04T16:51:34.675Z,1.00
2023-06-04T16:59:17.803Z,1.00
2023-06-04T17:06:09.746Z,1.00
2023-06-04T17:09:00.258Z,1.00
2023-06-04T17:11:38.584Z,1.00
2023-06-04T17:14:11.081Z,1.00
2023-06-04T17:16:49.212Z,1.00
2023-06-04T17:19:29.751Z,1.00
2023-06-04T17:22:14.100Z,1.00
2023-06-04T17:24:42.648Z,1.00
2023-06-04T17:27:16.915Z,1.00
2023-06-04T17:29:45.487Z,1.00
2023-06-04T17:32:15.131Z,1.00
2023-06-04T17:34:48.018Z,1.00
2023-06-04T17:37:16.804Z,1.00
2023-06-04T17:39:46.858Z,1.00
2023-06-04T17:42:21.771Z,1.00
2023-06-04T17:44:50.576Z,1.00
2023-06-04T17:47:19.089Z,1.00
2023-06-04T17:49:52.699Z,1.00
2023-06-04T17:52:21.231Z,1.00
2023-06-04T17:54:50.770Z,1.00
2023-06-04T17:57:19.359Z,1.00
2023-06-04T17:59:47.695Z,1.00
2023-06-04T18:02:17.384Z,1.00
2023-06-04T18:04:48.753Z,1.00
2023-06-04T18:07:18.721Z,1.00
2023-06-04T18:09:49.184Z,1.00
2023-06-04T18:12:17.868Z,1.00
2023-06-04T18:14:46.441Z,1.00
2023-06-04T18:17:16.865Z,1.00
2023-06-04T18:19:45.404Z,1.00
2023-06-04T18:22:13.946Z,1.00
2023-06-04T18:24:45.594Z,1.00
2023-06-04T18:27:19.914Z,1.00
2023-06-04T18:29:50.291Z,1.00
2023-06-04T18:32:27.368Z,1.00
2023-06-04T18:34:57.202Z,1.00
2023-06-04T18:37:28.649Z,1.00
2023-06-04T18:39:58.764Z,1.00
2023-06-04T18:42:31.289Z,1.00
2023-06-04T18:45:01.324Z,1.00
2023-06-04T18:47:32.222Z,1.00
2023-06-04T18:50:00.858Z,1.00
2023-06-04T18:52:29.583Z,1.00
2023-06-04T18:54:59.612Z,1.00
2023-06-04T18:57:28.492Z,1.00
2023-06-04T18:59:57.090Z,1.00
2023-06-04T19:02:26.229Z,1.00
2023-06-04T19:04:54.721Z,1.00
2023-06-04T19:07:23.337Z,1.00
2023-06-04T19:09:53.705Z,1.00
2023-06-04T19:12:23.659Z,1.00
2023-06-04T19:14:54.145Z,1.00
2023-06-04T19:17:23.789Z,1.00
2023-06-04T19:19:53.598Z,1.00
2023-06-04T19:22:22.122Z,1.00
2023-06-04T19:24:50.627Z,1.00
2023-06-04T19:27:20.713Z,1.00
2023-06-04T19:29:50.659Z,1.00
2023-06-04T19:32:21.072Z,1.00
2023-06-04T19:34:52.507Z,1.00
2023-06-04T19:37:22.424Z,1.00
2023-06-04T19:39:53.800Z,1.00
2023-06-04T19:42:24.376Z,1.00
2023-06-04T19:44:54.522Z,1.00
2023-06-04T19:47:23.160Z,1.00
2023-06-04T19:49:51.584Z,1.00
2023-06-04T19:52:20.032Z,1.00
2023-06-04T19:54:51.242Z,1.00
2023-06-04T19:57:20.548Z,1.00
2023-06-04T19:59:48.935Z,1.00
2023-06-04T20:02:18.559Z,1.00
2023-06-04T20:04:46.842Z,1.00
2023-06-04T20:07:15.164Z,1.00
2023-06-04T20:09:43.430Z,1.00
2023-06-04T20:12:11.804Z,1.00
2023-06-04T20:14:40.097Z,1.00
2023-06-04T20:17:08.412Z,1.00
2023-06-04T20:19:38.162Z,1.00
2023-06-04T20:22:08.642Z,1.00
2023-06-04T20:24:37.114Z,1.00
2023-06-04T20:27:06.031Z,1.00
2023-06-04T20:29:34.376Z,1.00
2023-06-04T20:32:02.794Z,1.00
2023-06-04T20:34:31.140Z,1.00
2023-06-04T20:37:04.013Z,1.00
2023-06-04T20:39:34.380Z,1.00
2023-06-04T20:42:02.639Z,1.00
2023-06-04T20:44:31.104Z,1.00
2023-06-04T20:46:59.802Z,1.00
2023-06-04T20:49:28.381Z,1.00
2023-06-04T20:51:56.803Z,1.00
2023-06-04T20:54:28.640Z,1.00
2023-06-04T20:56:57.876Z,1.00
2023-06-04T20:59:26.326Z,1.00
2023-06-04T21:01:54.871Z,1.00
2023-06-04T21:04:23.354Z,1.00
2023-06-04T21:06:51.874Z,1.00
2023-06-04T21:09:20.480Z,1.00
2023-06-04T21:11:50.591Z,1.00
2023-06-04T21:14:19.123Z,1.00
2023-06-04T21:16:47.711Z,1.00
2023-06-04T21:19:17.464Z,1.00
2023-06-04T21:21:47.949Z,1.00
2023-06-04T21:24:16.502Z,1.00
2023-06-04T21:26:45.242Z,1.00
2023-06-04T21:29:17.627Z,1.00
2023-06-04T21:31:46.268Z,1.00
2023-06-04T21:34:15.986Z,1.00
2023-06-04T21:36:48.030Z,1.00
2023-06-04T21:39:16.782Z,1.00
2023-06-04T21:41:45.480Z,1.00
2023-06-04T21:44:17.234Z,1.00
2023-06-04T21:46:46.548Z,1.00
2023-06-04T21:49:17.122Z,1.00
2023-06-04T21:51:45.656Z,1.00
2023-06-04T21:54:17.161Z,1.00
2023-06-04T21:56:48.635Z,1.00
2023-06-04T21:59:18.481Z,1.00
2023-06-04T22:01:48.820Z,1.00
2023-06-04T22:04:19.779Z,1.00
2023-06-04T22:06:48.267Z,1.00
2023-06-04T22:09:16.789Z,1.00
2023-06-04T22:11:45.308Z,1.00
2023-06-04T22:14:15.154Z,4.70
2023-06-04T22:16:44.987Z,8.60
2023-06-04T22:19:13.545Z,21.00
2023-06-04T22:21:41.937Z,55.10
2023-06-04T22:24:10.679Z,53.40
2023-06-04T22:26:39.251Z,63.70
2023-06-04T22:29:07.748Z,62.20
2023-06-04T22:31:36.285Z,91.30
2023-06-04T22:34:07.759Z,94.60
2023-06-04T22:36:36.128Z,99.90
2023-06-04T22:39:04.708Z,99.90
2023-06-04T22:41:33.132Z,99.90
2023-06-04T22:44:01.600Z,99.90
2023-06-04T22:46:30.236Z,99.90
2023-06-04T22:48:58.682Z,99.90
2023-06-04T22:51:28.890Z,99.90
2023-06-04T22:53:57.397Z,99.90
2023-06-04T22:56:26.384Z,99.90
2023-06-04T22:58:54.856Z,99.90
2023-06-04T23:01:23.529Z,99.90
2023-06-04T23:03:52.119Z,99.90
2023-06-04T23:06:20.730Z,99.90
2023-06-04T23:08:50.740Z,99.90
2023-06-04T23:11:19.114Z,99.90
2023-06-04T23:13:47.494Z,99.90
2023-06-04T23:16:16.215Z,99.90
2023-06-04T23:18:44.676Z,99.90
2023-06-04T23:21:13.231Z,99.90
2023-06-04T23:23:41.651Z,99.90
2023-06-04T23:26:12.781Z,99.90
2023-06-04T23:28:41.273Z,99.90
2023-06-04T23:31:10.116Z,99.90
2023-06-04T23:33:38.810Z,99.90
2023-06-04T23:36:07.721Z,1.00
2023-06-04T23:38:36.310Z,1.00
2023-06-04T23:41:04.880Z,1.00
2023-06-04T23:43:34.783Z,1.00
2023-06-04T23:46:03.274Z,1.00
2023-06-04T23:48:31.719Z,1.00
2023-06-04T23:51:00.354Z,1.00
2023-06-04T23:53:28.892Z,1.00
2023-06-04T23:55:57.342Z,1.00
2023-06-04T23:58:25.822Z,1.80
